createdAt,value
2018-09-20T00:00:56.481Z,15.15
2018-09-20T00:03:24.624Z,16.30
2018-09-20T00:05:52.632Z,12.35
2018-09-20T00:08:20.644Z,13.30
2018-09-20T00:10:48.683Z,13.30
2018-09-20T00:13:16.725Z,14.70
2018-09-20T00:15:44.761Z,13.28
2018-09-20T00:18:12.812Z,14.63
2018-09-20T00:20:40.825Z,13.53
2018-09-20T00:23:08.858Z,12.30
2018-09-20T00:25:36.892Z,11.28
2018-09-20T00:28:04.961Z,11.28
2018-09-20T00:30:32.979Z,10.75
2018-09-20T00:33:01.000Z,11.05
2018-09-20T00:35:29.000Z,13.47
2018-09-20T00:37:57.022Z,10.53
2018-09-20T00:40:25.028Z,9.70
2018-09-20T00:42:53.044Z,8.78
2018-09-20T00:45:21.072Z,10.35
2018-09-20T00:47:49.112Z,10.88
2018-09-20T00:50:17.124Z,11.95
2018-09-20T00:52:45.139Z,9.75
2018-09-20T00:55:13.156Z,10.77
2018-09-20T00:57:41.187Z,9.50
2018-09-20T01:00:09.192Z,10.28
2018-09-20T01:02:37.244Z,12.47
2018-09-20T01:05:05.291Z,12.55
2018-09-20T01:07:33.323Z,9.20
2018-09-20T01:10:01.351Z,10.45
2018-09-20T01:12:29.364Z,10.10
2018-09-20T01:14:57.395Z,7.45
2018-09-20T01:17:25.401Z,8.15
2018-09-20T01:19:53.403Z,11.88
2018-09-20T01:22:21.416Z,9.28
2018-09-20T01:24:49.453Z,9.48
2018-09-20T01:27:17.479Z,12.00
2018-09-20T01:29:45.488Z,9.25
2018-09-20T01:32:13.517Z,7.85
2018-09-20T01:34:41.547Z,9.00
2018-09-20T01:37:09.575Z,8.95
2018-09-20T01:39:37.591Z,8.95
2018-09-20T01:42:05.665Z,10.10
2018-09-20T01:44:33.701Z,9.33
2018-09-20T01:47:01.731Z,7.90
2018-09-20T01:49:29.764Z,12.50
2018-09-20T01:51:57.779Z,9.45
2018-09-20T01:54:25.803Z,9.80
2018-09-20T01:56:53.832Z,10.43
2018-09-20T01:59:21.876Z,10.45
2018-09-20T02:01:49.917Z,12.43
2018-09-20T02:04:17.960Z,11.90
2018-09-20T02:06:46.020Z,10.40
2018-09-20T02:09:14.060Z,13.62
2018-09-20T02:11:42.076Z,11.00
2018-09-20T02:14:10.109Z,12.85
2018-09-20T02:16:38.142Z,11.25
2018-09-20T02:19:06.364Z,12.78
2018-09-20T02:21:34.471Z,12.37
2018-09-20T02:24:02.625Z,12.63
2018-09-20T02:26:30.669Z,12.55
2018-09-20T02:28:58.732Z,10.30
2018-09-20T02:31:26.744Z,10.10
2018-09-20T02:33:54.769Z,10.03
2018-09-20T02:36:22.790Z,11.70
2018-09-20T02:38:50.815Z,12.25
2018-09-20T02:41:18.874Z,11.12
2018-09-20T02:43:46.879Z,12.20
2018-09-20T02:46:14.888Z,14.95
2018-09-20T02:48:42.929Z,12.78
2018-09-20T02:51:10.945Z,11.45
2018-09-20T02:53:38.956Z,10.98
2018-09-20T02:56:07.011Z,10.15
2018-09-20T02:58:35.064Z,10.88
2018-09-20T03:01:03.092Z,11.73
2018-09-20T03:03:31.106Z,12.45
2018-09-20T03:05:59.113Z,11.53
2018-09-20T03:08:27.136Z,13.15
2018-09-20T03:10:55.144Z,10.53
2018-09-20T03:13:23.205Z,10.45
2018-09-20T03:15:51.261Z,8.50
2018-09-20T03:18:19.301Z,10.38
2018-09-20T03:20:47.340Z,10.30
2018-09-20T03:23:15.384Z,9.20
2018-09-20T03:25:43.396Z,11.65
2018-09-20T03:28:11.425Z,10.25
2018-09-20T03:30:39.574Z,12.80
2018-09-20T03:33:07.565Z,9.63
2018-09-20T03:35:35.597Z,12.77
2018-09-20T03:38:03.623Z,10.53
2018-09-20T03:40:31.672Z,12.55
2018-09-20T03:42:59.749Z,11.03
2018-09-20T03:45:27.794Z,12.50
2018-09-20T03:47:55.820Z,10.82
2018-09-20T03:50:23.859Z,11.37
2018-09-20T03:52:51.896Z,14.00
2018-09-20T03:55:19.919Z,11.50
2018-09-20T03:57:47.960Z,9.60
2018-09-20T04:00:16.008Z,10.20
2018-09-20T04:02:44.089Z,10.13
2018-09-20T04:05:12.137Z,11.07
2018-09-20T04:07:40.180Z,12.95
2018-09-20T04:10:08.217Z,9.58
2018-09-20T04:12:36.276Z,9.85
2018-09-20T04:15:04.498Z,11.68
2018-09-20T04:17:32.516Z,12.50
2018-09-20T04:20:00.553Z,10.70
2018-09-20T04:22:28.596Z,14.20
2018-09-20T04:24:56.637Z,9.18
2018-09-20T04:27:24.680Z,11.70
2018-09-20T04:29:52.719Z,11.88
2018-09-20T04:32:20.730Z,12.55
2018-09-20T04:34:48.796Z,11.30
2018-09-20T04:37:16.823Z,8.73
2018-09-20T04:39:44.824Z,12.23
2018-09-20T04:42:12.832Z,13.15
2018-09-20T04:44:40.859Z,10.08
2018-09-20T04:47:09.176Z,11.12
2018-09-20T04:49:37.361Z,14.40
2018-09-20T04:52:05.636Z,12.30
2018-09-20T04:54:33.673Z,10.75
2018-09-20T04:57:01.683Z,10.65
2018-09-20T04:59:29.713Z,13.57
2018-09-20T05:01:57.727Z,14.65
2018-09-20T05:04:25.752Z,12.20
2018-09-20T05:06:53.777Z,14.03
2018-09-20T05:09:21.807Z,13.75
2018-09-20T05:11:49.844Z,13.35
2018-09-20T05:14:19.363Z,13.03
2018-09-20T05:16:47.368Z,10.65
2018-09-20T05:19:15.408Z,11.70
2018-09-20T05:21:43.433Z,12.28
2018-09-20T05:24:11.460Z,16.50
2018-09-20T05:26:39.491Z,14.00
2018-09-20T05:29:07.529Z,15.33
2018-09-20T05:31:35.560Z,11.65
2018-09-20T05:34:03.564Z,13.30
2018-09-20T05:36:31.608Z,13.80
2018-09-20T05:38:59.653Z,11.43
2018-09-20T05:41:27.678Z,11.33
2018-09-20T05:43:55.713Z,10.93
2018-09-20T05:46:23.752Z,13.70
2018-09-20T05:48:51.772Z,10.53
2018-09-20T05:51:19.779Z,10.03
2018-09-20T05:53:47.813Z,13.00
2018-09-20T05:56:15.847Z,9.83
2018-09-20T05:58:43.865Z,9.90
2018-09-20T06:01:11.896Z,12.35
2018-09-20T06:03:39.920Z,10.10
2018-09-20T06:06:07.953Z,10.88
2018-09-20T06:08:35.977Z,8.83
2018-09-20T06:11:04.004Z,12.85
2018-09-20T06:13:32.054Z,12.15
2018-09-20T06:16:00.086Z,14.60
2018-09-20T06:18:28.128Z,12.40
2018-09-20T06:20:56.156Z,12.43
2018-09-20T06:23:24.208Z,19.10
2018-09-20T06:25:52.240Z,10.13
2018-09-20T06:28:20.237Z,11.25
2018-09-20T06:30:48.423Z,12.58
2018-09-20T06:33:21.331Z,11.33
2018-09-20T06:35:49.372Z,13.43
2018-09-20T06:38:17.387Z,8.93
2018-09-20T06:40:45.409Z,12.40
2018-09-20T06:43:13.443Z,12.07
2018-09-20T06:45:41.489Z,13.50
2018-09-20T06:48:09.508Z,11.10
2018-09-20T06:50:37.561Z,13.53
2018-09-20T06:53:05.740Z,9.75
2018-09-20T06:55:33.880Z,13.13
2018-09-20T06:58:01.912Z,9.33
2018-09-20T07:00:29.914Z,10.50
2018-09-20T07:02:57.960Z,15.30
2018-09-20T07:05:25.979Z,10.35
2018-09-20T07:07:54.041Z,10.00
2018-09-20T07:10:22.050Z,9.38
2018-09-20T07:12:50.096Z,10.50
2018-09-20T07:15:18.116Z,9.63
2018-09-20T07:17:46.177Z,10.70
2018-09-20T07:20:14.208Z,13.15
2018-09-20T07:22:42.240Z,10.28
2018-09-20T07:25:46.715Z,11.65
2018-09-20T07:28:14.715Z,12.03
2018-09-20T07:30:42.746Z,12.10
2018-09-20T07:33:10.773Z,7.12
2018-09-20T07:35:38.838Z,11.43
2018-09-20T07:38:06.920Z,10.63
2018-09-20T07:40:34.977Z,11.28
2018-09-20T07:43:03.055Z,8.85
2018-09-20T07:45:31.097Z,9.90
2018-09-20T07:47:59.141Z,11.00
2018-09-20T07:50:27.185Z,10.40
2018-09-20T07:52:55.592Z,10.00
2018-09-20T07:55:23.662Z,10.70
2018-09-20T07:57:51.708Z,8.85
2018-09-20T08:00:19.757Z,12.07
2018-09-20T08:02:47.829Z,14.33
2018-09-20T08:05:15.873Z,10.60
2018-09-20T08:07:43.920Z,10.83
2018-09-20T08:10:11.998Z,12.55
2018-09-20T08:12:40.028Z,10.53
2018-09-20T08:15:08.064Z,10.10
2018-09-20T08:17:36.334Z,8.75
2018-09-20T08:20:04.601Z,12.45
2018-09-20T08:22:32.651Z,10.32
2018-09-20T08:25:00.673Z,8.58
2018-09-20T08:27:28.715Z,12.47
2018-09-20T08:29:56.756Z,9.40
2018-09-20T08:32:24.809Z,9.70
2018-09-20T08:34:52.829Z,8.70
2018-09-20T08:37:20.999Z,15.30
2018-09-20T08:39:48.916Z,11.57
2018-09-20T08:42:17.043Z,10.80
2018-09-20T08:44:45.009Z,10.35
2018-09-20T08:47:13.078Z,15.30
2018-09-20T08:49:41.146Z,10.35
2018-09-20T08:52:09.245Z,8.90
2018-09-20T08:54:37.317Z,11.97
2018-09-20T08:57:05.716Z,11.68
2018-09-20T08:59:33.714Z,14.17
2018-09-20T09:02:01.765Z,11.18
2018-09-20T09:04:29.941Z,8.68
2018-09-20T09:06:58.057Z,10.28
2018-09-20T09:09:26.109Z,11.05
2018-09-20T09:11:54.222Z,14.40
2018-09-20T09:14:22.224Z,10.03
2018-09-20T09:16:50.264Z,11.63
2018-09-20T09:19:18.321Z,11.57
2018-09-20T09:21:46.385Z,10.65
2018-09-20T09:24:14.444Z,10.70
2018-09-20T09:26:42.477Z,12.05
2018-09-20T09:29:10.539Z,10.23
2018-09-20T09:31:38.588Z,13.85
2018-09-20T09:34:06.665Z,12.85
2018-09-20T09:36:34.672Z,10.23
2018-09-20T09:39:02.725Z,12.68
2018-09-20T09:41:30.760Z,9.70
2018-09-20T09:43:58.784Z,12.47
2018-09-20T09:46:26.801Z,8.25
2018-09-20T09:48:54.887Z,9.03
2018-09-20T09:51:22.928Z,9.80
2018-09-20T09:53:50.983Z,9.78
2018-09-20T09:56:19.057Z,7.90
2018-09-20T09:58:47.068Z,10.03
2018-09-20T10:01:15.081Z,9.58
2018-09-20T10:03:43.101Z,9.63
2018-09-20T10:06:11.113Z,11.63
2018-09-20T10:08:39.256Z,8.60
2018-09-20T10:11:07.261Z,7.97
2018-09-20T10:13:35.361Z,8.57
2018-09-20T10:16:03.300Z,9.88
2018-09-20T10:18:31.323Z,10.98
2018-09-20T10:20:59.354Z,11.65
2018-09-20T10:23:27.377Z,9.58
2018-09-20T10:25:55.397Z,9.93
2018-09-20T10:28:23.429Z,12.78
2018-09-20T10:30:51.485Z,11.12
2018-09-20T10:33:19.532Z,8.58
2018-09-20T10:35:47.575Z,10.55
2018-09-20T10:38:15.638Z,11.30
2018-09-20T10:40:43.692Z,12.53
2018-09-20T10:43:11.752Z,9.25
2018-09-20T10:45:39.812Z,9.40
2018-09-20T10:48:07.905Z,12.25
2018-09-20T10:50:35.958Z,10.50
2018-09-20T10:53:04.001Z,10.20
2018-09-20T10:55:33.789Z,10.25
2018-09-20T10:58:04.985Z,9.60
2018-09-20T11:00:40.271Z,13.93
2018-09-20T11:03:10.831Z,18.55
2018-09-20T11:05:43.478Z,14.80
2018-09-20T11:08:20.865Z,12.03
2018-09-20T11:10:50.720Z,14.10
2018-09-20T11:13:23.320Z,11.63
2018-09-20T11:15:57.039Z,12.47
2018-09-20T11:18:26.708Z,9.25
2018-09-20T11:21:12.981Z,12.98
2018-09-20T11:23:41.136Z,9.05
2018-09-20T11:26:09.148Z,10.70
2018-09-20T11:28:37.164Z,10.45
2018-09-20T11:31:05.180Z,8.68
2018-09-20T11:33:33.193Z,9.90
2018-09-20T11:36:01.208Z,9.28
2018-09-20T11:38:29.235Z,8.75
2018-09-20T11:40:57.248Z,11.40
2018-09-20T11:43:25.396Z,9.85
2018-09-20T11:45:53.403Z,11.10
2018-09-20T11:48:21.392Z,12.70
2018-09-20T11:50:49.420Z,12.13
2018-09-20T11:53:17.447Z,8.85
2018-09-20T11:55:45.492Z,9.48
2018-09-20T11:58:13.533Z,9.75
2018-09-20T12:00:41.573Z,10.80
2018-09-20T12:03:09.612Z,9.25
2018-09-20T12:05:37.661Z,11.43
2018-09-20T12:08:05.728Z,9.58
2018-09-20T12:10:33.762Z,13.00
2018-09-20T12:13:01.790Z,11.70
2018-09-20T12:15:29.833Z,8.63
2018-09-20T12:17:57.848Z,8.58
2018-09-20T12:20:25.880Z,7.97
2018-09-20T12:22:54.018Z,9.90
2018-09-20T12:25:22.036Z,8.98
2018-09-20T12:27:50.044Z,8.80
2018-09-20T12:30:18.065Z,11.05
2018-09-20T12:32:46.122Z,12.35
2018-09-20T12:35:14.120Z,11.43
2018-09-20T12:37:42.145Z,9.93
2018-09-20T12:40:10.153Z,8.15
2018-09-20T12:42:38.176Z,7.00
2018-09-20T12:45:06.614Z,8.07
2018-09-20T12:47:34.640Z,13.62
2018-09-20T12:50:02.660Z,8.45
2018-09-20T12:52:30.657Z,8.68
2018-09-20T12:54:58.683Z,11.25
2018-09-20T12:57:26.693Z,8.13
2018-09-20T12:59:54.808Z,12.07
2018-09-20T13:02:22.830Z,8.40
2018-09-20T13:04:51.138Z,9.70
2018-09-20T13:07:19.144Z,12.15
2018-09-20T13:09:47.178Z,10.38
2018-09-20T13:12:15.188Z,8.03
2018-09-20T13:14:43.197Z,8.88
2018-09-20T13:17:11.212Z,8.93
2018-09-20T13:19:39.223Z,8.00
2018-09-20T13:22:07.257Z,10.00
2018-09-20T13:24:35.273Z,8.38
2018-09-20T13:27:03.335Z,9.88
2018-09-20T13:29:31.429Z,7.62
2018-09-20T13:31:59.456Z,8.50
2018-09-20T13:34:27.472Z,8.60
2018-09-20T13:36:55.500Z,7.05
2018-09-20T13:39:23.536Z,8.93
2018-09-20T13:41:51.557Z,6.25
2018-09-20T13:44:19.591Z,10.15
2018-09-20T13:46:47.604Z,10.53
2018-09-20T13:49:15.621Z,8.30
2018-09-20T13:51:43.620Z,8.05
2018-09-20T13:54:11.661Z,9.73
2018-09-20T13:56:39.708Z,7.65
2018-09-20T13:59:07.723Z,7.87
2018-09-20T14:01:35.771Z,12.73
2018-09-20T14:04:03.778Z,8.93
2018-09-20T14:06:31.982Z,9.88
2018-09-20T14:09:00.033Z,7.07
2018-09-20T14:11:28.066Z,8.60
2018-09-20T14:13:56.088Z,8.85
2018-09-20T14:16:24.482Z,8.70
2018-09-20T14:18:52.532Z,9.53
2018-09-20T14:21:20.559Z,10.30
2018-09-20T14:23:48.630Z,7.87
2018-09-20T14:26:16.629Z,9.25
2018-09-20T14:28:44.670Z,7.05
2018-09-20T14:31:12.709Z,8.25
2018-09-20T14:33:40.749Z,10.50
2018-09-20T14:36:08.785Z,8.15
2018-09-20T14:38:36.808Z,6.15
2018-09-20T14:41:04.838Z,9.20
2018-09-20T14:43:32.841Z,8.28
2018-09-20T14:46:00.868Z,9.48
2018-09-20T14:48:28.868Z,10.43
2018-09-20T14:50:56.889Z,8.93
2018-09-20T14:53:24.906Z,7.50
2018-09-20T14:55:52.917Z,7.53
2018-09-20T14:58:20.953Z,5.97
2018-09-20T15:00:49.005Z,7.47
2018-09-20T15:03:17.307Z,7.25
2018-09-20T15:05:45.343Z,5.22
2018-09-20T15:08:13.397Z,9.65
2018-09-20T15:10:41.394Z,5.55
2018-09-20T15:13:09.457Z,8.15
2018-09-20T15:15:37.465Z,6.53
2018-09-20T15:18:05.500Z,9.23
2018-09-20T15:20:33.513Z,9.13
2018-09-20T15:23:01.516Z,6.97
2018-09-20T15:25:29.541Z,10.45
2018-09-20T15:27:57.556Z,7.33
2018-09-20T15:30:25.574Z,7.77
2018-09-20T15:32:53.605Z,10.25
2018-09-20T15:35:21.628Z,7.15
2018-09-20T15:37:50.072Z,11.73
2018-09-20T15:40:18.162Z,11.90
2018-09-20T15:42:46.204Z,8.20
2018-09-20T15:45:14.237Z,9.60
2018-09-20T15:47:42.284Z,9.13
2018-09-20T15:50:10.345Z,6.80
2018-09-20T15:52:38.434Z,8.68
2018-09-20T15:55:06.498Z,7.50
2018-09-20T15:57:34.535Z,9.00
2018-09-20T16:00:02.586Z,7.00
2018-09-20T16:02:30.781Z,7.73
2018-09-20T16:04:58.886Z,7.90
2018-09-20T16:07:26.968Z,7.27
2018-09-20T16:09:55.129Z,8.13
2018-09-20T16:12:23.316Z,8.60
2018-09-20T16:14:51.747Z,7.10
2018-09-20T16:17:19.835Z,8.88
2018-09-20T16:19:48.077Z,8.90
2018-09-20T16:22:16.482Z,8.08
2018-09-20T16:24:44.581Z,6.53
2018-09-20T16:27:12.633Z,10.68
2018-09-20T16:29:46.428Z,13.18
2018-09-20T16:32:42.924Z,11.27
2018-09-20T16:35:21.437Z,8.95
2018-09-20T16:38:04.805Z,8.20
2018-09-20T16:40:34.637Z,7.58
2018-09-20T16:43:02.684Z,7.58
2018-09-20T16:45:30.872Z,10.50
2018-09-20T16:47:58.916Z,12.50
2018-09-20T16:50:26.946Z,7.03
2018-09-20T16:52:54.976Z,9.33
2018-09-20T16:55:23.049Z,10.03
2018-09-20T16:57:51.236Z,12.00
2018-09-20T17:00:19.268Z,8.60
2018-09-20T17:02:47.312Z,9.88
2018-09-20T17:05:15.419Z,7.90
2018-09-20T17:07:43.422Z,10.90
2018-09-20T17:10:11.468Z,12.77
2018-09-20T17:12:39.509Z,10.93
2018-09-20T17:15:07.761Z,10.07
2018-09-20T17:17:35.633Z,10.87
2018-09-20T17:20:03.691Z,12.80
2018-09-20T17:22:31.717Z,13.05
2018-09-20T17:24:59.765Z,14.87
2018-09-20T17:27:27.796Z,15.38
2018-09-20T17:29:55.885Z,23.83
2018-09-20T17:32:23.934Z,19.23
2018-09-20T17:34:52.017Z,17.12
2018-09-20T17:37:21.557Z,16.82
2018-09-20T17:39:50.692Z,17.45
2018-09-20T17:42:19.372Z,17.20
2018-09-20T17:44:47.761Z,17.35
2018-09-20T17:47:15.789Z,15.00
2018-09-20T17:49:43.812Z,13.08
2018-09-20T17:52:12.117Z,13.88
2018-09-20T17:54:40.643Z,13.62
2018-09-20T17:57:09.032Z,11.65
2018-09-20T17:59:37.078Z,10.43
2018-09-20T18:02:05.129Z,9.05
2018-09-20T18:04:33.171Z,13.22
2018-09-20T18:07:01.222Z,11.03
2018-09-20T18:09:29.265Z,12.45
2018-09-20T18:11:57.316Z,10.25
2018-09-20T18:14:25.353Z,9.53
2018-09-20T18:16:53.597Z,12.07
2018-09-20T18:19:21.640Z,11.95
2018-09-20T18:21:49.947Z,9.35
2018-09-20T18:24:18.017Z,10.18
2018-09-20T18:26:46.089Z,10.35
2018-09-20T18:29:14.128Z,10.35
2018-09-20T18:31:42.189Z,13.65
2018-09-20T18:34:10.273Z,15.20
2018-09-20T18:36:38.285Z,8.45
2018-09-20T18:39:08.906Z,11.50
2018-09-20T18:41:37.216Z,19.92
2018-09-20T18:44:05.276Z,20.60
2018-09-20T18:46:33.333Z,20.75
2018-09-20T18:49:01.382Z,31.02
2018-09-20T18:51:29.441Z,32.30
2018-09-20T18:53:57.626Z,28.92
2018-09-20T18:56:25.798Z,26.17
2018-09-20T18:58:53.901Z,17.20
2018-09-20T19:01:21.939Z,17.82
2018-09-20T19:03:49.985Z,15.68
2018-09-20T19:06:18.026Z,15.72
2018-09-20T19:08:46.065Z,16.82
2018-09-20T19:11:14.094Z,18.60
2018-09-20T19:13:42.180Z,15.68
2018-09-20T19:16:10.237Z,12.35
2018-09-20T19:18:38.288Z,12.70
2018-09-20T19:21:06.368Z,14.40
2018-09-20T19:23:34.597Z,17.25
2018-09-20T19:26:02.640Z,14.38
2018-09-20T19:28:30.677Z,15.45
2018-09-20T19:30:58.729Z,14.33
2018-09-20T19:33:26.769Z,14.20
2018-09-20T19:35:54.788Z,16.80
2018-09-20T19:38:22.817Z,17.50
2018-09-20T19:40:50.840Z,18.00
2018-09-20T19:43:18.920Z,17.03
2018-09-20T19:45:46.933Z,14.58
2018-09-20T19:48:14.948Z,16.05
2018-09-20T19:50:42.966Z,23.25
2018-09-20T19:53:11.003Z,12.40
2018-09-20T19:55:38.985Z,15.00
2018-09-20T19:58:07.007Z,11.63
2018-09-20T20:00:35.125Z,13.65
2018-09-20T20:03:03.020Z,12.63
2018-09-20T20:05:31.022Z,13.43
2018-09-20T20:07:59.040Z,13.25
2018-09-20T20:10:27.074Z,11.25
2018-09-20T20:12:55.107Z,10.68
2018-09-20T20:15:23.117Z,14.58
2018-09-20T20:17:51.165Z,14.85
2018-09-20T20:20:19.258Z,10.60
2018-09-20T20:22:47.328Z,16.30
2018-09-20T20:25:15.344Z,11.93
2018-09-20T20:27:43.369Z,15.45
2018-09-20T20:30:11.376Z,13.18
2018-09-20T20:32:39.441Z,12.57
2018-09-20T20:35:07.420Z,12.90
2018-09-20T20:37:35.439Z,10.40
2018-09-20T20:40:03.469Z,10.20
2018-09-20T20:42:31.483Z,14.70
2018-09-20T20:44:59.549Z,13.98
2018-09-20T20:47:27.549Z,13.53
2018-09-20T20:49:55.572Z,11.43
2018-09-20T20:52:23.584Z,11.15
2018-09-20T20:54:51.609Z,10.45
2018-09-20T20:57:19.664Z,11.48
2018-09-20T20:59:47.689Z,11.55
2018-09-20T21:02:15.689Z,9.33
2018-09-20T21:04:43.814Z,15.60
2018-09-20T21:07:11.888Z,13.05
2018-09-20T21:09:39.916Z,14.00
2018-09-20T21:12:07.964Z,14.10
2018-09-20T21:14:35.998Z,14.47
2018-09-20T21:17:04.030Z,12.58
2018-09-20T21:19:32.025Z,13.13
2018-09-20T21:22:00.049Z,12.60
2018-09-20T21:24:28.082Z,12.30
2018-09-20T21:26:56.084Z,15.53
2018-09-20T21:29:24.122Z,12.53
2018-09-20T21:31:52.144Z,11.50
2018-09-20T21:34:20.334Z,12.13
2018-09-20T21:36:48.709Z,12.10
2018-09-20T21:39:16.736Z,12.63
2018-09-20T21:41:44.761Z,10.85
2018-09-20T21:44:12.788Z,11.97
2018-09-20T21:46:40.853Z,11.12
2018-09-20T21:49:08.881Z,14.37
2018-09-20T21:51:36.973Z,11.60
2018-09-20T21:54:05.172Z,14.78
2018-09-20T21:56:33.211Z,13.83
2018-09-20T21:59:01.239Z,10.35
2018-09-20T22:01:33.516Z,9.55
2018-09-20T22:04:04.212Z,11.30
2018-09-20T22:06:33.208Z,10.40
2018-09-20T22:09:01.233Z,8.10
2018-09-20T22:11:29.257Z,8.33
2018-09-20T22:13:57.272Z,9.63
2018-09-20T22:16:25.351Z,9.88
2018-09-20T22:18:53.365Z,9.50
2018-09-20T22:21:21.389Z,9.37
2018-09-20T22:23:49.416Z,11.12
2018-09-20T22:26:17.433Z,11.53
2018-09-20T22:28:45.453Z,12.95
2018-09-20T22:31:13.459Z,10.72
2018-09-20T22:33:41.469Z,10.30
2018-09-20T22:36:09.495Z,9.95
2018-09-20T22:38:37.520Z,13.38
2018-09-20T22:41:05.583Z,10.58
2018-09-20T22:43:33.612Z,10.72
2018-09-20T22:46:01.653Z,11.00
2018-09-20T22:48:29.664Z,9.63
2018-09-20T22:50:57.721Z,11.30
2018-09-20T22:53:25.731Z,10.88
2018-09-20T22:55:53.749Z,9.83
2018-09-20T22:58:21.760Z,11.90
2018-09-20T23:00:49.786Z,9.53
2018-09-20T23:03:17.786Z,9.10
2018-09-20T23:05:45.800Z,9.25
2018-09-20T23:08:13.802Z,8.63
2018-09-20T23:10:41.812Z,10.13
2018-09-20T23:13:09.876Z,9.48
2018-09-20T23:15:37.870Z,9.65
2018-09-20T23:18:05.905Z,11.45
2018-09-20T23:20:33.912Z,7.17
2018-09-20T23:23:01.943Z,8.60
2018-09-20T23:25:29.963Z,10.23
2018-09-20T23:27:57.968Z,8.93
2018-09-20T23:30:25.996Z,12.23
2018-09-20T23:32:54.025Z,10.00
2018-09-20T23:35:22.084Z,9.98
2018-09-20T23:37:50.100Z,8.23
2018-09-20T23:40:18.148Z,11.70
2018-09-20T23:42:46.208Z,8.80
2018-09-20T23:45:14.248Z,8.33
2018-09-20T23:47:42.269Z,9.03
2018-09-20T23:50:10.317Z,7.62
2018-09-20T23:52:38.358Z,10.40
2018-09-20T23:55:06.517Z,8.40
2018-09-20T23:57:34.540Z,11.75
